Time;durP1;ratioP1;P1;durP2;ratioP2;P2;SDS_P1;SDS_P2;PMS_P1;PMS_P2;Temp;Humidity;BMP_temperature;BMP_pressure;BME280_temperature;BME280_humidity;BME280_pressure;Samples;Min_cycle;Max_cycle;Signal;HPM_P1;HPM_P2
2023/12/31 00:01:10;;;;;;;26.80;14.10;;;;;;;3.25;82.53;100985.36;108888;1256;76177;-61
2023/12/31 00:03:56;;;;;;;25.30;11.80;;;;;;;3.10;82.57;100983.23;108776;1256;138637;-61
2023/12/31 00:06:23;;;;;;;21.90;10.40;;;;;;;2.99;82.68;100981.52;108882;1256;71452;-61
2023/12/31 00:08:49;;;;;;;21.30;8.60;;;;;;;2.90;82.81;100986.23;108887;1256;59371;-61
2023/12/31 00:11:16;;;;;;;16.80;7.80;;;;;;;2.82;82.76;100984.69;107077;1255;138977;-61
2023/12/31 00:13:43;;;;;;;13.90;6.50;;;;;;;2.73;82.87;100984.89;105001;1257;74178;-60
2023/12/31 00:16:12;;;;;;;11.80;4.40;;;;;;;2.65;83.07;100980.90;104929;1262;139163;-61
2023/12/31 00:18:39;;;;;;;14.30;4.10;;;;;;;2.59;83.01;100982.42;108758;1261;72930;-61
2023/12/31 00:21:05;;;;;;;11.60;4.40;;;;;;;2.52;83.04;100978.23;108794;1256;59062;-62
2023/12/31 00:23:32;;;;;;;10.10;4.10;;;;;;;2.43;82.95;100976.29;108818;1256;138486;-62
2023/12/31 00:25:59;;;;;;;16.00;5.30;;;;;;;2.33;83.02;100973.64;108850;1256;75270;-61
2023/12/31 00:28:25;;;;;;;9.70;4.20;;;;;;;2.25;83.06;100977.63;108836;1256;138833;-62
2023/12/31 00:30:52;;;;;;;12.70;5.00;;;;;;;2.18;83.14;100976.15;109009;1256;70351;-62
2023/12/31 00:33:19;;;;;;;13.00;4.10;;;;;;;2.14;83.20;100974.51;108819;1254;59121;-62
2023/12/31 00:35:45;;;;;;;12.50;5.10;;;;;;;2.10;83.35;100983.64;108831;1255;138390;-62
2023/12/31 00:38:12;;;;;;;14.30;5.40;;;;;;;2.07;83.50;100983.62;108936;1255;74139;-62
2023/12/31 00:40:39;;;;;;;15.70;7.80;;;;;;;2.08;83.46;100985.21;108789;1257;138442;-63
2023/12/31 00:43:05;;;;;;;16.30;7.90;;;;;;;2.10;83.71;100985.84;108946;1256;73867;-62
2023/12/31 00:45:32;;;;;;;21.30;9.50;;;;;;;2.08;83.56;100989.75;108877;1255;59961;-63
2023/12/31 00:47:59;;;;;;;19.00;8.30;;;;;;;2.03;83.48;100984.56;108738;1260;138446;-62
2023/12/31 00:50:25;;;;;;;19.50;7.80;;;;;;;2.00;83.56;100986.95;108940;1256;73817;-62
2023/12/31 00:52:52;;;;;;;19.20;6.00;;;;;;;1.97;83.62;100982.45;108846;1257;139631;-62
2023/12/31 00:55:19;;;;;;;12.20;5.30;;;;;;;1.93;83.63;100986.01;108945;1256;71152;-63
2023/12/31 00:57:45;;;;;;;12.30;5.00;;;;;;;1.89;83.70;100990.45;108875;1255;138562;-63
2023/12/31 01:00:13;;;;;;;11.40;4.40;;;;;;;1.85;83.76;100990.34;108953;1255;59360;-61
2023/12/31 01:02:40;;;;;;;12.00;4.30;;;;;;;1.81;83.79;100995.80;108940;1257;75442;-62
2023/12/31 01:05:07;;;;;;;18.50;4.70;;;;;;;1.78;83.83;100998.35;107595;1259;138373;-61
2023/12/31 01:07:34;;;;;;;16.60;4.90;;;;;;;1.73;83.92;100995.84;105015;1260;73704;-61
2023/12/31 01:10:01;;;;;;;15.00;4.80;;;;;;;1.72;84.09;100995.25;108792;1255;138915;-61
2023/12/31 01:12:28;;;;;;;12.30;4.90;;;;;;;1.71;84.09;100995.38;106200;1255;61108;-61
2023/12/31 01:14:54;;;;;;;13.40;4.50;;;;;;;1.71;84.41;100999.17;104901;1263;74033;-61
2023/12/31 01:17:22;;;;;;;16.20;5.30;;;;;;;1.70;84.27;100999.61;106644;1260;138608;-62
2023/12/31 01:19:48;;;;;;;18.20;4.90;;;;;;;1.68;84.36;101000.69;105110;1255;73333;-61
2023/12/31 01:22:15;;;;;;;17.00;4.50;;;;;;;1.65;84.39;101002.44;104770;1260;139308;-61
2023/12/31 01:24:42;;;;;;;15.50;4.60;;;;;;;1.60;84.21;101002.39;105145;1260;61455;-61
2023/12/31 01:27:08;;;;;;;10.90;4.00;;;;;;;1.54;84.16;100997.86;105087;1259;75687;-62
2023/12/31 01:29:37;;;;;;;17.00;4.10;;;;;;;1.49;84.39;100998.08;104912;1258;139113;-62
2023/12/31 01:32:05;;;;;;;17.20;4.00;;;;;;;1.45;84.31;100999.03;108919;1257;73289;-62
2023/12/31 01:34:32;;;;;;;15.30;4.20;;;;;;;1.41;84.29;101003.59;108817;1260;138906;-62
2023/12/31 01:36:58;;;;;;;12.30;4.10;;;;;;;1.35;84.33;101000.45;108959;1256;58980;-62
2023/12/31 01:39:25;;;;;;;11.40;4.30;;;;;;;1.31;84.39;100997.94;108909;1257;75622;-61
2023/12/31 01:41:52;;;;;;;10.30;3.80;;;;;;;1.28;84.41;101000.16;108864;1257;139420;-62
2023/12/31 01:44:19;;;;;;;17.40;3.90;;;;;;;1.25;84.44;101003.20;108918;1256;71994;-62
2023/12/31 01:46:45;;;;;;;12.10;3.50;;;;;;;1.22;84.42;101007.33;108724;1260;139012;-63
2023/12/31 01:49:12;;;;;;;14.40;4.20;;;;;;;1.18;84.46;101004.31;108800;1254;60721;-62
2023/12/31 01:51:38;;;;;;;8.30;3.80;;;;;;;1.17;84.51;101005.83;108745;1257;73798;-62
2023/12/31 01:54:05;;;;;;;8.50;3.50;;;;;;;1.15;84.51;101008.46;108652;1255;138015;-61
2023/12/31 01:56:32;;;;;;;9.70;3.70;;;;;;;1.14;84.49;101010.79;108966;1258;74085;-62
2023/12/31 01:58:58;;;;;;;15.30;4.00;;;;;;;1.14;84.78;101010.80;108441;1257;138416;-61
2023/12/31 02:01:26;;;;;;;10.70;3.00;;;;;;;1.16;85.04;101012.68;105087;1260;61286;-61
2023/12/31 02:03:52;;;;;;;12.00;4.30;;;;;;;1.18;85.13;101011.95;104962;1259;138695;-61
2023/12/31 02:06:19;;;;;;;10.00;3.40;;;;;;;1.20;85.26;101014.67;105051;1263;65662;-61
2023/12/31 02:08:46;;;;;;;14.60;3.60;;;;;;;1.22;85.17;101018.92;105095;1263;73248;-61
2023/12/31 02:11:12;;;;;;;14.20;3.20;;;;;;;1.21;85.39;101014.39;104891;1259;138607;-60
2023/12/31 02:13:39;;;;;;;12.60;3.90;;;;;;;1.18;85.25;101015.22;105012;1258;61385;-60
2023/12/31 02:16:15;;;;;;;9.30;3.40;;;;;;;1.16;85.35;101017.36;104971;1260;140262;-61
2023/12/31 02:18:42;;;;;;;11.00;3.80;;;;;;;1.13;85.21;101017.14;104990;1260;65963;-61
2023/12/31 02:21:09;;;;;;;13.50;3.70;;;;;;;1.08;85.14;101021.81;105032;1257;73035;-61
2023/12/31 02:23:36;;;;;;;12.00;3.70;;;;;;;1.04;85.21;101022.92;104952;1267;140118;-61
2023/12/31 02:26:10;;;;;;;8.20;2.80;;;;;;;1.00;85.22;101024.73;104888;1258;61346;-62
2023/12/31 02:28:36;;;;;;;;;;;;;;;0.95;85.18;101025.96;104943;1254;139949;-62
2023/12/31 02:31:04;;;;;;;11.00;2.80;;;;;;;0.92;85.20;101031.83;105113;1260;67278;-60
2023/12/31 02:33:31;;;;;;;10.80;3.20;;;;;;;0.89;85.32;101031.30;105624;1257;72765;-61
2023/12/31 02:35:58;;;;;;;11.40;3.40;;;;;;;0.89;85.40;101026.57;108871;1255;139844;-61
2023/12/31 02:38:25;;;;;;;11.20;3.30;;;;;;;0.88;85.69;101024.59;109004;1257;59577;-61
2023/12/31 02:40:52;;;;;;;12.80;4.00;;;;;;;0.87;85.54;101023.35;108654;1256;140703;-63
2023/12/31 02:43:18;;;;;;;12.70;3.80;;;;;;;0.87;85.70;101021.77;108983;1257;64559;-63
2023/12/31 02:45:45;;;;;;;10.80;4.00;;;;;;;0.88;85.73;101021.13;108815;1255;71435;-63
2023/12/31 02:48:12;;;;;;;10.70;3.70;;;;;;;0.90;85.91;101024.73;108780;1257;59101;-63
2023/12/31 02:50:38;;;;;;;11.90;4.40;;;;;;;0.92;85.91;101022.10;108956;1259;59239;-63
2023/12/31 02:53:05;;;;;;;11.00;4.10;;;;;;;0.93;85.93;101018.58;108859;1254;138909;-62
2023/12/31 02:55:32;;;;;;;12.90;4.00;;;;;;;0.94;85.84;101014.15;108792;1258;65663;-62
2023/12/31 02:57:59;;;;;;;8.30;3.60;;;;;;;0.94;85.90;101017.59;108110;1257;139040;-62
2023/12/31 03:00:25;;;;;;;9.90;3.50;;;;;;;0.95;85.83;101015.40;105099;1260;59829;-62
2023/12/31 03:02:52;;;;;;;14.40;3.90;;;;;;;0.95;85.95;101016.62;105067;1257;61257;-61
2023/12/31 03:05:19;;;;;;;9.90;3.90;;;;;;;0.96;86.15;101013.73;104933;1257;138492;-62
2023/12/31 03:07:46;;;;;;;14.30;4.00;;;;;;;0.95;86.12;101012.85;104999;1258;66119;-67
2023/12/31 03:10:13;;;;;;;11.30;3.70;;;;;;;0.95;85.96;101015.74;105002;1259;139558;-68
2023/12/31 03:12:40;;;;;;;12.80;3.30;;;;;;;0.94;86.11;101019.00;105073;1259;61295;-67
2023/12/31 03:15:09;;;;;;;15.70;3.70;;;;;;;0.95;86.47;101021.61;105060;1260;61247;-67
2023/12/31 03:17:35;;;;;;;12.50;3.00;;;;;;;0.96;86.42;101028.14;108824;1257;138423;-68
2023/12/31 03:20:02;;;;;;;13.40;4.00;;;;;;;0.97;86.35;101031.10;108959;1257;65682;-68
2023/12/31 03:22:29;;;;;;;12.40;3.40;;;;;;;0.97;86.59;101035.62;108831;1257;138522;-67
2023/12/31 03:24:56;;;;;;;8.70;2.80;;;;;;;1.00;86.59;101036.47;108801;1257;59262;-67
2023/12/31 03:27:22;;;;;;;15.40;4.00;;;;;;;1.01;86.48;101037.73;108967;1257;59401;-67
2023/12/31 03:29:49;;;;;;;11.00;2.80;;;;;;;1.02;86.46;101044.07;108856;1256;138985;-62
2023/12/31 03:32:16;;;;;;;9.20;2.90;;;;;;;1.04;86.51;101041.91;108911;1257;65336;-62
2023/12/31 03:34:42;;;;;;;12.20;3.00;;;;;;;1.05;86.63;101033.21;108709;1260;138220;-62
2023/12/31 03:37:09;;;;;;;10.70;3.10;;;;;;;1.06;86.58;101040.87;108805;1256;59081;-63
2023/12/31 03:39:36;;;;;;;16.90;3.30;;;;;;;1.06;86.47;101041.89;108823;1256;60448;-62
2023/12/31 03:42:03;;;;;;;10.10;3.00;;;;;;;1.06;86.54;101044.32;108616;1258;138242;-61
2023/12/31 03:44:30;;;;;;;10.60;3.00;;;;;;;1.07;86.34;101043.83;108909;1257;67144;-62
2023/12/31 03:46:56;;;;;;;15.60;3.60;;;;;;;1.09;86.64;101047.48;108817;1255;138522;-60
2023/12/31 03:49:23;;;;;;;13.60;3.20;;;;;;;1.12;86.69;101047.35;107395;1257;61378;-62
2023/12/31 03:51:50;;;;;;;15.00;3.00;;;;;;;1.13;86.65;101049.32;105019;1260;138780;-60
2023/12/31 03:54:16;;;;;;;16.60;3.90;;;;;;;1.14;86.71;101046.63;104900;1260;74671;-59
2023/12/31 03:56:43;;;;;;;11.80;3.50;;;;;;;1.15;86.75;101047.02;104909;1262;66059;-59
2023/12/31 03:59:10;;;;;;;9.50;3.30;;;;;;;1.13;86.43;101051.05;105006;1259;138255;-60
2023/12/31 04:01:58;;;;;;;12.90;3.30;;;;;;;1.11;86.53;101053.14;105013;1259;61352;-61
2023/12/31 04:04:29;;;;;;;11.80;4.10;;;;;;;1.07;86.56;101048.52;108840;1257;139177;-61
2023/12/31 04:06:55;;;;;;;11.50;3.50;;;;;;;1.03;86.42;101052.06;108959;1256;76023;-61
2023/12/31 04:09:22;;;;;;;14.80;3.50;;;;;;;1.00;86.28;101050.63;108974;1256;64190;-61
2023/12/31 04:11:49;;;;;;;12.00;3.50;;;;;;;0.96;86.10;101049.35;106150;1257;138580;-61
2023/12/31 04:14:15;;;;;;;9.80;3.10;;;;;;;0.94;86.39;101048.04;105043;1259;61240;-66
2023/12/31 04:16:42;;;;;;;11.80;3.90;;;;;;;0.94;86.37;101046.64;104964;1256;138459;-65
2023/12/31 04:19:09;;;;;;;9.70;3.60;;;;;;;0.94;86.50;101049.55;104930;1260;75132;-66
2023/12/31 04:21:36;;;;;;;15.20;4.00;;;;;;;0.93;86.62;101048.14;108947;1256;67748;-66
2023/12/31 04:24:03;;;;;;;11.80;3.50;;;;;;;0.92;86.64;101045.60;108865;1256;139289;-66
2023/12/31 04:26:29;;;;;;;10.10;4.60;;;;;;;0.90;86.62;101048.62;108759;1257;59611;-64
2023/12/31 04:28:56;;;;;;;15.80;4.10;;;;;;;0.89;86.52;101046.23;106655;1261;138455;-66
2023/12/31 04:31:23;;;;;;;11.00;3.30;;;;;;;0.88;86.54;101045.70;108868;1256;75406;-67
2023/12/31 04:33:49;;;;;;;10.60;4.20;;;;;;;0.89;86.66;101045.41;108711;1257;138491;-66
2023/12/31 04:36:16;;;;;;;12.40;3.40;;;;;;;0.90;87.06;101047.60;108871;1256;72475;-66
2023/12/31 04:38:44;;;;;;;12.80;3.50;;;;;;;0.92;87.05;101045.42;108878;1257;59393;-67
2023/12/31 04:41:22;;;;;;;13.60;4.00;;;;;;;0.92;86.94;101039.25;108751;1257;138535;-66
2023/12/31 04:43:49;;;;;;;12.00;4.00;;;;;;;0.93;86.93;101041.20;108761;1256;73425;-66
2023/12/31 04:46:19;;;;;;;14.30;3.20;;;;;;;0.93;86.75;101041.91;108706;1257;138732;-68
2023/12/31 04:48:46;;;;;;;12.30;3.50;;;;;;;0.91;86.72;101043.00;108831;1256;71517;-67
2023/12/31 04:51:26;;;;;;;9.70;4.00;;;;;;;0.87;86.58;101039.61;108889;1256;59178;-67
2023/12/31 04:53:53;;;;;;;12.00;3.80;;;;;;;0.83;86.47;101042.05;108807;1257;138275;-66
2023/12/31 04:56:24;;;;;;;11.20;3.40;;;;;;;0.79;86.33;101043.85;108860;1256;74690;-66
2023/12/31 04:58:56;;;;;;;12.00;3.90;;;;;;;0.75;86.46;101038.27;108799;1256;138388;-66
2023/12/31 05:01:23;;;;;;;10.40;3.60;;;;;;;0.74;86.45;101038.84;108900;1256;71761;-66
2023/12/31 05:03:50;;;;;;;10.20;4.00;;;;;;;0.70;86.48;101035.50;108500;1256;138629;-66
2023/12/31 05:06:16;;;;;;;8.30;4.10;;;;;;;0.69;86.44;101038.52;108811;1257;60285;-66
2023/12/31 05:08:44;;;;;;;10.60;4.40;;;;;;;0.68;86.48;101035.52;108850;1257;74653;-66
2023/12/31 05:11:11;;;;;;;12.60;4.80;;;;;;;0.67;86.65;101036.52;106770;1257;138496;-66
2023/12/31 05:13:38;;;;;;;12.50;4.50;;;;;;;0.67;86.70;101035.41;108789;1256;71638;-66
2023/12/31 05:16:09;;;;;;;10.40;4.20;;;;;;;0.66;86.72;101037.95;108754;1258;138710;-67
2023/12/31 05:18:36;;;;;;;11.40;5.00;;;;;;;0.65;86.85;101046.35;108780;1256;61084;-67
2023/12/31 05:21:04;;;;;;;11.80;5.30;;;;;;;0.65;86.96;101047.40;107192;1256;74703;-67
2023/12/31 05:23:31;;;;;;;10.60;4.80;;;;;;;0.66;87.19;101054.59;104768;1261;138874;-66
2023/12/31 05:25:58;;;;;;;14.10;5.30;;;;;;;0.68;87.11;101060.23;104924;1257;72374;-67
2023/12/31 05:28:24;;;;;;;14.40;5.30;;;;;;;0.69;87.44;101061.30;104918;1261;138592;-67
2023/12/31 05:30:51;;;;;;;12.20;4.80;;;;;;;0.68;87.27;101062.48;105086;1257;63535;-67
2023/12/31 05:33:18;;;;;;;12.80;5.90;;;;;;;0.68;87.26;101061.09;105186;1259;74329;-66
2023/12/31 05:35:44;;;;;;;15.90;6.10;;;;;;;0.68;87.33;101057.77;105016;1258;138233;-65
2023/12/31 05:38:11;;;;;;;18.00;6.70;;;;;;;0.67;87.63;101059.83;105190;1256;73401;-65
2023/12/31 05:40:38;;;;;;;14.60;6.30;;;;;;;0.67;87.74;101064.98;105130;1255;138453;-67
2023/12/31 05:43:04;;;;;;;13.00;5.70;;;;;;;0.67;87.70;101064.61;104960;1256;61483;-65
2023/12/31 05:45:31;;;;;;;17.50;6.30;;;;;;;0.65;87.73;101063.30;105096;1257;73987;-60
2023/12/31 05:47:58;;;;;;;18.80;6.50;;;;;;;0.65;87.75;101066.58;105013;1259;138623;-61
2023/12/31 05:50:24;;;;;;;13.50;6.60;;;;;;;0.65;87.85;101069.30;104863;1257;71806;-60
2023/12/31 05:52:52;;;;;;;22.70;7.40;;;;;;;0.65;87.96;101068.98;104948;1260;138642;-60
2023/12/31 05:55:19;;;;;;;19.30;7.40;;;;;;;0.66;88.03;101067.66;105117;1258;61205;-62
2023/12/31 05:57:45;;;;;;;25.90;7.50;;;;;;;0.66;88.11;101064.70;104955;1256;140137;-62
2023/12/31 06:00:13;;;;;;;18.50;7.50;;;;;;;0.65;88.08;101066.71;105132;1257;65533;-62
2023/12/31 06:02:40;;;;;;;28.10;8.50;;;;;;;0.66;88.29;101064.70;105168;1259;73062;-61
2023/12/31 06:05:07;;;;;;;23.90;7.90;;;;;;;0.67;88.24;101068.80;104999;1257;139750;-62
2023/12/31 06:07:34;;;;;;;18.00;8.50;;;;;;;0.68;88.36;101070.25;105079;1261;61358;-63
2023/12/31 06:10:01;;;;;;;21.60;8.80;;;;;;;0.69;88.43;101074.27;104885;1257;139982;-61
2023/12/31 06:12:28;;;;;;;20.20;9.10;;;;;;;0.70;88.57;101074.50;105083;1259;66427;-62
2023/12/31 06:14:55;;;;;;;17.80;9.20;;;;;;;0.71;88.64;101075.09;105051;1257;73408;-62
2023/12/31 06:17:22;;;;;;;22.00;9.40;;;;;;;0.72;88.63;101074.70;104990;1256;139878;-61
2023/12/31 06:19:49;;;;;;;24.50;9.30;;;;;;;0.73;88.77;101075.80;105125;1258;61346;-60
2023/12/31 06:22:16;;;;;;;20.90;9.60;;;;;;;0.74;88.84;101077.89;105161;1259;139149;-61
2023/12/31 06:24:43;;;;;;;21.10;9.10;;;;;;;0.75;88.96;101081.77;105141;1260;67255;-61
2023/12/31 06:27:09;;;;;;;21.80;8.30;;;;;;;0.76;88.87;101085.14;105038;1260;73055;-61
2023/12/31 06:29:36;;;;;;;25.80;9.50;;;;;;;0.78;89.05;101084.38;104949;1257;138424;-61
2023/12/31 06:32:03;;;;;;;15.70;8.40;;;;;;;0.80;88.92;101086.08;105012;1256;62789;-62
2023/12/31 06:34:30;;;;;;;20.50;9.10;;;;;;;0.82;89.08;101084.00;104830;1257;139915;-62
2023/12/31 06:36:57;;;;;;;19.30;8.90;;;;;;;0.84;89.22;101089.16;105118;1260;66251;-61
2023/12/31 06:39:23;;;;;;;12.40;8.60;;;;;;;0.87;89.27;101089.38;105019;1258;73759;-61
2023/12/31 06:41:50;;;;;;;17.90;8.40;;;;;;;0.88;89.10;101089.39;104993;1257;138629;-61
2023/12/31 06:44:17;;;;;;;21.10;9.00;;;;;;;0.87;89.20;101096.95;105089;1259;60744;-61
2023/12/31 06:46:44;;;;;;;15.60;8.80;;;;;;;0.91;89.28;101099.65;104908;1256;139236;-62
2023/12/31 06:49:10;;;;;;;22.20;9.60;;;;;;;1.00;89.72;101096.62;105102;1257;68088;-62
2023/12/31 06:51:37;;;;;;;21.60;10.10;;;;;;;1.14;90.06;101100.34;105012;1259;71828;-63
2023/12/31 06:54:04;;;;;;;19.40;9.20;;;;;;;1.31;90.34;101104.13;104888;1259;138420;-62
2023/12/31 06:56:31;;;;;;;20.80;8.80;;;;;;;1.46;90.38;101106.11;105486;1256;61238;-62
2023/12/31 06:58:58;;;;;;;17.40;9.30;;;;;;;1.57;90.25;101108.25;105016;1258;138562;-61
2023/12/31 07:01:24;;;;;;;14.20;8.20;;;;;;;1.66;90.21;101107.64;105055;1256;65926;-62
2023/12/31 07:03:51;;;;;;;15.70;9.10;;;;;;;1.73;90.09;101108.80;104966;1257;138522;-61
2023/12/31 07:06:18;;;;;;;14.20;8.80;;;;;;;1.82;90.15;101110.55;105032;1259;61336;-61
2023/12/31 07:08:44;;;;;;;17.70;9.10;;;;;;;1.91;90.13;101111.33;105091;1256;61324;-61
2023/12/31 07:11:11;;;;;;;17.70;9.10;;;;;;;2.00;90.15;101111.38;105011;1259;138369;-61
2023/12/31 07:13:38;;;;;;;14.90;9.20;;;;;;;2.08;90.12;101107.77;105031;1259;66857;-62
2023/12/31 07:16:04;;;;;;;16.00;9.40;;;;;;;2.16;90.01;101114.16;104917;1259;138845;-60
2023/12/31 07:18:32;;;;;;;21.40;10.00;;;;;;;2.23;89.94;101110.44;105038;1257;61413;-61
2023/12/31 07:20:59;;;;;;;18.80;9.90;;;;;;;2.27;89.77;101108.50;105106;1259;61217;-61
2023/12/31 07:23:25;;;;;;;17.30;9.00;;;;;;;2.33;89.75;101107.83;105010;1256;138440;-61
2023/12/31 07:25:52;;;;;;;18.20;9.30;;;;;;;2.37;89.58;101105.49;105013;1260;68425;-62
2023/12/31 07:28:19;;;;;;;16.90;9.50;;;;;;;2.43;89.51;101106.42;104882;1256;138562;-62
2023/12/31 07:30:46;;;;;;;15.30;8.90;;;;;;;2.47;89.49;101106.64;105111;1260;61273;-62
2023/12/31 07:33:12;;;;;;;16.60;9.30;;;;;;;2.54;89.55;101103.61;105115;1257;61263;-61
2023/12/31 07:35:41;;;;;;;18.70;9.50;;;;;;;2.60;89.33;101107.46;104967;1259;138598;-62
2023/12/31 07:38:08;;;;;;;17.80;9.30;;;;;;;2.65;89.24;101109.46;104993;1257;65270;-60
2023/12/31 07:40:35;;;;;;;19.40;9.80;;;;;;;2.68;89.37;101113.84;104944;1258;138630;-62
2023/12/31 07:43:02;;;;;;;15.40;9.80;;;;;;;2.73;89.24;101122.46;105082;1257;61221;-61
2023/12/31 07:45:29;;;;;;;18.40;9.40;;;;;;;2.77;89.14;101120.65;108948;1256;59330;-62
2023/12/31 07:47:56;;;;;;;14.80;9.60;;;;;;;2.82;89.05;101117.48;105473;1257;138980;-62
2023/12/31 07:50:22;;;;;;;18.20;10.10;;;;;;;2.87;88.99;101115.23;105151;1256;66270;-61
2023/12/31 07:52:50;;;;;;;18.30;9.30;;;;;;;2.93;88.87;101111.55;104973;1260;138694;-62
2023/12/31 07:55:18;;;;;;;16.80;10.30;;;;;;;2.97;88.91;101116.13;105084;1259;61261;-61
2023/12/31 07:57:44;;;;;;;17.50;9.30;;;;;;;3.00;88.64;101121.87;104830;1260;61463;-60
2023/12/31 08:00:12;;;;;;;14.30;8.50;;;;;;;3.03;88.68;101128.14;105075;1255;74133;-61
2023/12/31 08:02:39;;;;;;;14.90;9.70;;;;;;;3.09;88.69;101130.91;105403;1257;66675;-61
2023/12/31 08:05:06;;;;;;;19.60;10.70;;;;;;;3.14;88.52;101134.47;105051;1257;139804;-61
2023/12/31 08:07:33;;;;;;;22.00;10.50;;;;;;;3.19;88.52;101133.09;105015;1259;61262;-63
2023/12/31 08:09:59;;;;;;;19.90;9.50;;;;;;;3.23;88.49;101130.20;104926;1259;139145;-62
2023/12/31 08:12:26;;;;;;;14.30;9.00;;;;;;;3.26;88.39;101133.32;104926;1257;75527;-62
2023/12/31 08:14:53;;;;;;;16.40;9.50;;;;;;;3.30;88.49;101133.42;104918;1256;66653;-62
2023/12/31 08:17:21;;;;;;;17.70;9.60;;;;;;;3.35;88.42;101133.20;104910;1260;138558;-63
2023/12/31 08:19:48;;;;;;;13.40;9.30;;;;;;;3.40;88.23;101132.39;105049;1259;61295;-63
2023/12/31 08:22:14;;;;;;;15.40;9.30;;;;;;;3.43;88.23;101134.70;104812;1259;140030;-63
2023/12/31 08:24:41;;;;;;;14.50;9.60;;;;;;;3.46;88.07;101133.67;105050;1257;73930;-63
2023/12/31 08:27:08;;;;;;;17.50;9.70;;;;;;;3.53;88.26;101132.88;105012;1257;66652;-64
2023/12/31 08:29:34;;;;;;;16.50;9.30;;;;;;;3.57;88.00;101135.17;105145;1257;139364;-64
2023/12/31 08:32:01;;;;;;;18.30;11.20;;;;;;;3.58;87.86;101135.25;105128;1259;61250;-62
2023/12/31 08:34:29;;;;;;;17.60;11.20;;;;;;;3.61;87.80;101135.59;105004;1257;139470;-65
2023/12/31 08:36:56;;;;;;;15.60;10.40;;;;;;;3.62;87.72;101136.52;105060;1256;74242;-63
2023/12/31 08:39:23;;;;;;;15.80;9.90;;;;;;;3.60;87.70;101138.33;105101;1256;64690;-63
2023/12/31 08:41:49;;;;;;;12.60;8.70;;;;;;;3.61;87.57;101139.28;104965;1257;139456;-62
2023/12/31 08:44:16;;;;;;;13.90;9.60;;;;;;;3.64;87.60;101141.14;105128;1255;61375;-63
2023/12/31 08:46:43;;;;;;;15.80;9.90;;;;;;;3.67;87.57;101145.30;105171;1259;138145;-65
2023/12/31 08:49:09;;;;;;;14.70;9.80;;;;;;;3.68;87.43;101146.23;105098;1259;76243;-66
2023/12/31 08:51:36;;;;;;;14.60;9.90;;;;;;;3.68;87.29;101148.18;105268;1259;65711;-66
2023/12/31 08:54:03;;;;;;;19.70;11.00;;;;;;;3.71;87.39;101146.44;104959;1257;138016;-65
2023/12/31 08:56:29;;;;;;;20.90;13.10;;;;;;;3.78;87.47;101149.94;105165;1258;61346;-66
2023/12/31 08:58:56;;;;;;;16.50;12.10;;;;;;;3.84;87.53;101151.71;105138;1257;139007;-66
2023/12/31 09:01:23;;;;;;;17.80;11.40;;;;;;;3.93;87.50;101152.71;104982;1255;75512;-65
2023/12/31 09:03:49;;;;;;;17.70;12.40;;;;;;;4.01;87.53;101151.42;105063;1257;139961;-67
2023/12/31 09:06:26;;;;;;;17.40;11.90;;;;;;;4.07;87.38;101150.61;104860;1261;73534;-67
2023/12/31 09:08:53;;;;;;;17.30;13.20;;;;;;;4.08;86.94;101153.06;105062;1261;61343;-66
2023/12/31 09:11:21;;;;;;;17.20;12.40;;;;;;;4.06;86.72;101153.29;104945;1256;138296;-66
2023/12/31 09:13:47;;;;;;;18.30;13.00;;;;;;;4.08;86.75;101150.16;105120;1255;74750;-67
2023/12/31 09:16:14;;;;;;;15.20;10.40;;;;;;;4.10;86.67;101150.72;104962;1259;138173;-67
2023/12/31 09:18:41;;;;;;;11.00;8.90;;;;;;;4.14;86.66;101150.44;105199;1258;73811;-67
2023/12/31 09:21:07;;;;;;;12.30;9.80;;;;;;;4.18;86.60;101153.11;105130;1256;61264;-69
2023/12/31 09:23:34;;;;;;;14.10;9.80;;;;;;;4.20;86.50;101153.91;105145;1256;138414;-68
2023/12/31 09:26:01;;;;;;;14.20;10.60;;;;;;;4.19;86.30;101150.41;105187;1258;75649;-67
2023/12/31 09:28:28;;;;;;;18.70;10.20;;;;;;;4.20;86.39;101149.95;105079;1257;139464;-67
2023/12/31 09:30:54;;;;;;;22.50;15.50;;;;;;;4.25;86.34;101146.05;105144;1256;73327;-67
2023/12/31 09:33:21;;;;;;;24.70;20.40;;;;;;;4.22;86.05;101143.95;105124;1256;61356;-67
2023/12/31 09:35:48;;;;;;;22.50;16.60;;;;;;;4.21;85.95;101138.52;105124;1259;139221;-67
2023/12/31 09:38:14;;;;;;;19.40;13.90;;;;;;;4.27;86.22;101132.80;105140;1257;75694;-66
2023/12/31 09:40:42;;;;;;;22.30;15.10;;;;;;;4.35;86.17;101131.14;105002;1257;160945;-67
2023/12/31 09:43:10;;;;;;;18.20;13.70;;;;;;;4.43;86.39;101127.73;105370;1259;73784;-66
2023/12/31 09:45:37;;;;;;;19.00;13.00;;;;;;;4.49;86.22;101125.52;105062;1260;61296;-62
2023/12/31 09:48:04;;;;;;;22.80;14.20;;;;;;;4.55;86.08;101120.94;105157;1259;137839;-68
2023/12/31 09:50:31;;;;;;;20.70;13.50;;;;;;;4.54;85.90;101120.54;109131;1255;74203;-65
2023/12/31 09:52:59;;;;;;;22.70;14.80;;;;;;;4.54;85.69;101117.23;108847;1256;137942;-67
2023/12/31 09:55:27;;;;;;;20.30;14.60;;;;;;;4.52;85.63;101116.29;109095;1256;71438;-61
2023/12/31 09:57:54;;;;;;;20.70;12.30;;;;;;;4.54;85.54;101115.15;107019;1256;138768;-62
2023/12/31 10:00:21;;;;;;;16.70;11.40;;;;;;;4.48;85.24;101111.73;104904;1261;61372;-62
2023/12/31 10:02:50;;;;;;;17.50;13.70;;;;;;;4.48;85.31;101110.67;108880;1258;75626;-61
2023/12/31 10:05:16;;;;;;;21.90;15.40;;;;;;;4.47;84.96;101110.79;105907;1256;139299;-61
2023/12/31 10:07:44;;;;;;;19.40;12.20;;;;;;;4.46;85.18;101111.25;105064;1257;72404;-60
2023/12/31 10:10:11;;;;;;;16.90;12.90;;;;;;;4.50;85.18;101114.59;108812;1256;139220;-61
2023/12/31 10:12:38;;;;;;;16.90;11.70;;;;;;;4.50;85.05;101115.98;108956;1256;59675;-67
2023/12/31 10:15:07;;;;;;;15.80;10.60;;;;;;;4.47;84.88;101118.95;108959;1255;75544;-66
2023/12/31 10:17:36;;;;;;;15.20;10.30;;;;;;;4.45;84.97;101119.88;108883;1255;138778;-67
2023/12/31 10:20:03;;;;;;;13.00;9.90;;;;;;;4.45;84.88;101115.74;108790;1256;72455;-67
2023/12/31 10:22:31;;;;;;;16.70;11.00;;;;;;;4.48;85.13;101115.56;108658;1256;139563;-61
2023/12/31 10:25:16;;;;;;;14.60;10.90;;;;;;;4.57;85.15;101110.14;107165;1257;61371;-61
2023/12/31 10:27:43;;;;;;;21.60;12.20;;;;;;;4.65;85.23;101109.16;105376;1258;74973;-61
2023/12/31 10:30:11;;;;;;;13.70;10.40;;;;;;;4.68;85.04;101109.50;109045;1255;137851;-62
2023/12/31 10:32:37;;;;;;;14.70;10.40;;;;;;;4.70;85.08;101109.44;109145;1254;73091;-62
2023/12/31 10:35:05;;;;;;;13.50;9.80;;;;;;;4.74;85.09;101105.69;108802;1256;137705;-61
2023/12/31 10:37:31;;;;;;;19.30;13.40;;;;;;;4.77;85.00;101104.07;109140;1254;59006;-62
2023/12/31 10:39:58;;;;;;;18.70;12.80;;;;;;;4.79;84.94;101101.74;108810;1256;138042;-63
2023/12/31 10:42:25;;;;;;;22.30;14.40;;;;;;;4.80;84.93;101104.23;107655;1257;66238;-61
2023/12/31 10:44:55;;;;;;;25.60;14.40;;;;;;;4.81;84.81;101100.98;105130;1256;73107;-62
2023/12/31 10:47:22;;;;;;;21.30;13.40;;;;;;;4.82;84.73;101102.25;104769;1257;139117;-61
2023/12/31 10:49:48;;;;;;;19.30;12.20;;;;;;;4.79;84.64;101102.81;105143;1259;60080;-62
2023/12/31 10:52:16;;;;;;;19.90;12.10;;;;;;;4.78;84.51;101102.41;105086;1256;138964;-62
2023/12/31 10:54:47;;;;;;;20.30;12.60;;;;;;;4.75;84.50;101099.47;105098;1257;66107;-60
2023/12/31 10:57:14;;;;;;;20.60;13.30;;;;;;;4.74;84.53;101092.29;105076;1259;71918;-62
2023/12/31 10:59:44;;;;;;;19.70;13.40;;;;;;;4.76;84.50;101088.92;108774;1259;138453;-61
2023/12/31 11:02:16;;;;;;;20.90;14.90;;;;;;;4.82;84.70;101088.36;108896;1257;59834;-67
2023/12/31 11:04:44;;;;;;;25.80;17.10;;;;;;;4.88;84.83;101079.28;108883;1254;138613;-60
2023/12/31 11:07:15;;;;;;;25.60;16.60;;;;;;;4.94;84.73;101079.59;108805;1256;64891;-68
2023/12/31 11:09:43;;;;;;;25.20;15.40;;;;;;;4.97;84.52;101078.21;108908;1256;72604;-60
2023/12/31 11:12:10;;;;;;;21.80;14.60;;;;;;;5.02;84.52;101079.13;107862;1259;138641;-66